sensor_id;sensor_type;location;lat;lon;timestamp;P1;durP1;ratioP1;P2;durP2;ratioP2
11771;SDS011;12556;55.748;13.194;2024-02-23T00:02:17;7.30;;;5.67;;
11771;SDS011;12556;55.748;13.194;2024-02-23T00:04:44;8.07;;;6.27;;
11771;SDS011;12556;55.748;13.194;2024-02-23T00:07:11;7.03;;;6.00;;
11771;SDS011;12556;55.748;13.194;2024-02-23T00:09:39;7.80;;;6.07;;
11771;SDS011;12556;55.748;13.194;2024-02-23T00:12:06;6.23;;;5.63;;
11771;SDS011;12556;55.748;13.194;2024-02-23T00:14:34;6.73;;;6.13;;
11771;SDS011;12556;55.748;13.194;2024-02-23T00:17:01;7.57;;;6.87;;
11771;SDS011;12556;55.748;13.194;2024-02-23T00:19:29;7.23;;;6.53;;
11771;SDS011;12556;55.748;13.194;2024-02-23T00:21:57;8.80;;;6.80;;
11771;SDS011;12556;55.748;13.194;2024-02-23T00:24:25;8.67;;;7.13;;
11771;SDS011;12556;55.748;13.194;2024-02-23T00:26:53;9.37;;;8.47;;
11771;SDS011;12556;55.748;13.194;2024-02-23T00:29:20;9.17;;;8.20;;
11771;SDS011;12556;55.748;13.194;2024-02-23T00:31:47;11.07;;;8.83;;
11771;SDS011;12556;55.748;13.194;2024-02-23T00:34:14;9.73;;;8.80;;
11771;SDS011;12556;55.748;13.194;2024-02-23T00:36:42;10.00;;;8.93;;
11771;SDS011;12556;55.748;13.194;2024-02-23T00:39:09;8.47;;;7.57;;
11771;SDS011;12556;55.748;13.194;2024-02-23T00:41:36;7.70;;;7.00;;
11771;SDS011;12556;55.748;13.194;2024-02-23T00:44:05;7.60;;;6.80;;
11771;SDS011;12556;55.748;13.194;2024-02-23T00:46:32;6.93;;;6.23;;
11771;SDS011;12556;55.748;13.194;2024-02-23T00:48:59;7.70;;;6.47;;
11771;SDS011;12556;55.748;13.194;2024-02-23T00:51:26;6.80;;;6.07;;
11771;SDS011;12556;55.748;13.194;2024-02-23T00:53:53;6.63;;;5.57;;
11771;SDS011;12556;55.748;13.194;2024-02-23T00:56:20;5.73;;;5.07;;
11771;SDS011;12556;55.748;13.194;2024-02-23T00:58:47;6.10;;;5.30;;
11771;SDS011;12556;55.748;13.194;2024-02-23T01:01:15;6.13;;;5.53;;
11771;SDS011;12556;55.748;13.194;2024-02-23T01:03:42;6.07;;;5.47;;
11771;SDS011;12556;55.748;13.194;2024-02-23T01:06:09;7.00;;;5.67;;
11771;SDS011;12556;55.748;13.194;2024-02-23T01:08:36;8.07;;;6.00;;
11771;SDS011;12556;55.748;13.194;2024-02-23T01:11:05;6.17;;;5.57;;
11771;SDS011;12556;55.748;13.194;2024-02-23T01:13:32;6.43;;;5.73;;
11771;SDS011;12556;55.748;13.194;2024-02-23T01:15:59;6.50;;;5.90;;
11771;SDS011;12556;55.748;13.194;2024-02-23T01:18:27;5.93;;;5.43;;
11771;SDS011;12556;55.748;13.194;2024-02-23T01:20:55;7.27;;;6.00;;
11771;SDS011;12556;55.748;13.194;2024-02-23T01:23:22;6.03;;;5.37;;
11771;SDS011;12556;55.748;13.194;2024-02-23T01:25:49;6.97;;;6.03;;
11771;SDS011;12556;55.748;13.194;2024-02-23T01:28:16;5.73;;;5.13;;
11771;SDS011;12556;55.748;13.194;2024-02-23T01:30:43;6.07;;;5.13;;
11771;SDS011;12556;55.748;13.194;2024-02-23T01:33:10;6.53;;;5.70;;
11771;SDS011;12556;55.748;13.194;2024-02-23T01:35:38;5.03;;;4.60;;
11771;SDS011;12556;55.748;13.194;2024-02-23T01:38:05;6.13;;;5.07;;
11771;SDS011;12556;55.748;13.194;2024-02-23T01:40:32;5.30;;;4.60;;
11771;SDS011;12556;55.748;13.194;2024-02-23T01:43:02;5.03;;;4.20;;
11771;SDS011;12556;55.748;13.194;2024-02-23T01:45:30;4.47;;;4.07;;
11771;SDS011;12556;55.748;13.194;2024-02-23T01:47:57;4.20;;;3.80;;
11771;SDS011;12556;55.748;13.194;2024-02-23T01:50:25;3.53;;;3.23;;
11771;SDS011;12556;55.748;13.194;2024-02-23T01:52:55;3.73;;;3.20;;
11771;SDS011;12556;55.748;13.194;2024-02-23T01:55:24;3.70;;;3.30;;
11771;SDS011;12556;55.748;13.194;2024-02-23T01:57:51;3.17;;;2.87;;
11771;SDS011;12556;55.748;13.194;2024-02-23T02:00:20;3.47;;;3.17;;
11771;SDS011;12556;55.748;13.194;2024-02-23T02:02:47;3.67;;;3.37;;
11771;SDS011;12556;55.748;13.194;2024-02-23T02:05:14;3.33;;;3.03;;
11771;SDS011;12556;55.748;13.194;2024-02-23T02:07:41;4.30;;;3.50;;
11771;SDS011;12556;55.748;13.194;2024-02-23T02:10:10;4.00;;;3.33;;
11771;SDS011;12556;55.748;13.194;2024-02-23T02:12:37;3.23;;;2.93;;
11771;SDS011;12556;55.748;13.194;2024-02-23T02:15:05;3.67;;;2.90;;
11771;SDS011;12556;55.748;13.194;2024-02-23T02:17:32;2.60;;;2.30;;
11771;SDS011;12556;55.748;13.194;2024-02-23T02:19:59;2.03;;;1.83;;
11771;SDS011;12556;55.748;13.194;2024-02-23T02:22:31;2.00;;;1.63;;
11771;SDS011;12556;55.748;13.194;2024-02-23T02:24:58;2.13;;;1.50;;
11771;SDS011;12556;55.748;13.194;2024-02-23T02:27:27;1.33;;;1.23;;
11771;SDS011;12556;55.748;13.194;2024-02-23T02:29:53;4.43;;;1.63;;
11771;SDS011;12556;55.748;13.194;2024-02-23T02:32:20;2.73;;;1.33;;
11771;SDS011;12556;55.748;13.194;2024-02-23T02:34:47;1.50;;;1.40;;
11771;SDS011;12556;55.748;13.194;2024-02-23T02:37:14;2.37;;;1.43;;
11771;SDS011;12556;55.748;13.194;2024-02-23T02:39:41;2.87;;;1.47;;
11771;SDS011;12556;55.748;13.194;2024-02-23T02:42:08;4.17;;;1.37;;
11771;SDS011;12556;55.748;13.194;2024-02-23T02:44:36;4.80;;;1.27;;
11771;SDS011;12556;55.748;13.194;2024-02-23T02:47:04;1.40;;;1.30;;
11771;SDS011;12556;55.748;13.194;2024-02-23T02:49:31;2.00;;;1.27;;
11771;SDS011;12556;55.748;13.194;2024-02-23T02:51:58;2.67;;;1.20;;
11771;SDS011;12556;55.748;13.194;2024-02-23T02:54:25;1.67;;;1.10;;
11771;SDS011;12556;55.748;13.194;2024-02-23T02:56:51;3.37;;;1.30;;
11771;SDS011;12556;55.748;13.194;2024-02-23T02:59:19;2.70;;;1.43;;
11771;SDS011;12556;55.748;13.194;2024-02-23T03:01:47;1.60;;;1.10;;
11771;SDS011;12556;55.748;13.194;2024-02-23T03:04:14;2.17;;;1.00;;
11771;SDS011;12556;55.748;13.194;2024-02-23T03:06:41;1.97;;;0.90;;
11771;SDS011;12556;55.748;13.194;2024-02-23T03:09:08;4.13;;;1.10;;
11771;SDS011;12556;55.748;13.194;2024-02-23T03:11:36;2.37;;;1.00;;
11771;SDS011;12556;55.748;13.194;2024-02-23T03:14:02;1.90;;;0.93;;
11771;SDS011;12556;55.748;13.194;2024-02-23T03:16:29;1.77;;;1.00;;
11771;SDS011;12556;55.748;13.194;2024-02-23T03:18:57;2.17;;;1.33;;
11771;SDS011;12556;55.748;13.194;2024-02-23T03:21:24;4.20;;;1.07;;
11771;SDS011;12556;55.748;13.194;2024-02-23T03:23:51;2.47;;;1.10;;
11771;SDS011;12556;55.748;13.194;2024-02-23T03:26:18;2.53;;;0.87;;
11771;SDS011;12556;55.748;13.194;2024-02-23T03:28:45;3.30;;;0.90;;
11771;SDS011;12556;55.748;13.194;2024-02-23T03:31:13;1.77;;;0.90;;
11771;SDS011;12556;55.748;13.194;2024-02-23T03:33:40;2.27;;;0.97;;
11771;SDS011;12556;55.748;13.194;2024-02-23T03:36:08;0.73;;;0.73;;
11771;SDS011;12556;55.748;13.194;2024-02-23T03:38:36;2.53;;;1.10;;
11771;SDS011;12556;55.748;13.194;2024-02-23T03:41:03;3.57;;;0.87;;
11771;SDS011;12556;55.748;13.194;2024-02-23T03:43:31;1.17;;;0.80;;
11771;SDS011;12556;55.748;13.194;2024-02-23T03:45:57;0.80;;;0.70;;
11771;SDS011;12556;55.748;13.194;2024-02-23T03:48:24;1.30;;;0.70;;
11771;SDS011;12556;55.748;13.194;2024-02-23T03:50:51;1.40;;;0.63;;
11771;SDS011;12556;55.748;13.194;2024-02-23T03:53:20;2.50;;;1.10;;
11771;SDS011;12556;55.748;13.194;2024-02-23T03:55:48;3.07;;;1.03;;
11771;SDS011;12556;55.748;13.194;2024-02-23T03:58:15;4.13;;;1.07;;
11771;SDS011;12556;55.748;13.194;2024-02-23T04:00:42;1.30;;;0.80;;
11771;SDS011;12556;55.748;13.194;2024-02-23T04:03:09;2.60;;;0.80;;
11771;SDS011;12556;55.748;13.194;2024-02-23T04:05:36;2.83;;;1.00;;
11771;SDS011;12556;55.748;13.194;2024-02-23T04:08:03;2.77;;;0.93;;
11771;SDS011;12556;55.748;13.194;2024-02-23T04:10:32;2.73;;;1.17;;
11771;SDS011;12556;55.748;13.194;2024-02-23T04:12:59;2.63;;;0.60;;
11771;SDS011;12556;55.748;13.194;2024-02-23T04:15:27;3.50;;;0.80;;
11771;SDS011;12556;55.748;13.194;2024-02-23T04:17:54;5.10;;;1.00;;
11771;SDS011;12556;55.748;13.194;2024-02-23T04:20:20;2.30;;;1.27;;
11771;SDS011;12556;55.748;13.194;2024-02-23T04:22:47;3.00;;;0.97;;
11771;SDS011;12556;55.748;13.194;2024-02-23T04:25:14;4.23;;;0.93;;
11771;SDS011;12556;55.748;13.194;2024-02-23T04:27:43;2.97;;;0.80;;
11771;SDS011;12556;55.748;13.194;2024-02-23T04:30:10;0.70;;;0.70;;
11771;SDS011;12556;55.748;13.194;2024-02-23T04:32:38;3.17;;;0.90;;
11771;SDS011;12556;55.748;13.194;2024-02-23T04:35:06;3.13;;;0.90;;
11771;SDS011;12556;55.748;13.194;2024-02-23T04:37:33;3.27;;;1.00;;
11771;SDS011;12556;55.748;13.194;2024-02-23T04:40:00;6.00;;;0.97;;
11771;SDS011;12556;55.748;13.194;2024-02-23T04:42:29;1.43;;;0.93;;
11771;SDS011;12556;55.748;13.194;2024-02-23T04:44:57;1.60;;;0.80;;
11771;SDS011;12556;55.748;13.194;2024-02-23T04:47:24;2.73;;;1.20;;
11771;SDS011;12556;55.748;13.194;2024-02-23T04:49:51;3.20;;;0.90;;
11771;SDS011;12556;55.748;13.194;2024-02-23T04:52:18;3.83;;;1.07;;
11771;SDS011;12556;55.748;13.194;2024-02-23T04:54:45;2.43;;;1.00;;
11771;SDS011;12556;55.748;13.194;2024-02-23T04:57:12;2.40;;;0.70;;
11771;SDS011;12556;55.748;13.194;2024-02-23T04:59:38;2.53;;;0.90;;
11771;SDS011;12556;55.748;13.194;2024-02-23T05:02:07;1.70;;;0.80;;
11771;SDS011;12556;55.748;13.194;2024-02-23T05:04:34;2.47;;;0.90;;
11771;SDS011;12556;55.748;13.194;2024-02-23T05:07:01;5.10;;;0.93;;
11771;SDS011;12556;55.748;13.194;2024-02-23T05:09:28;2.07;;;0.90;;
11771;SDS011;12556;55.748;13.194;2024-02-23T05:11:55;1.43;;;0.80;;
11771;SDS011;12556;55.748;13.194;2024-02-23T05:14:22;1.53;;;0.83;;
11771;SDS011;12556;55.748;13.194;2024-02-23T05:16:48;2.87;;;0.90;;
11771;SDS011;12556;55.748;13.194;2024-02-23T05:19:17;3.30;;;1.00;;
11771;SDS011;12556;55.748;13.194;2024-02-23T05:21:43;5.20;;;1.10;;
11771;SDS011;12556;55.748;13.194;2024-02-23T05:24:10;3.57;;;1.10;;
11771;SDS011;12556;55.748;13.194;2024-02-23T05:26:37;1.60;;;0.90;;
11771;SDS011;12556;55.748;13.194;2024-02-23T05:29:05;2.17;;;1.10;;
11771;SDS011;12556;55.748;13.194;2024-02-23T05:31:43;2.87;;;1.30;;
11771;SDS011;12556;55.748;13.194;2024-02-23T05:34:11;2.63;;;1.10;;
11771;SDS011;12556;55.748;13.194;2024-02-23T05:36:40;3.73;;;1.20;;
11771;SDS011;12556;55.748;13.194;2024-02-23T05:39:07;2.90;;;1.23;;
11771;SDS011;12556;55.748;13.194;2024-02-23T05:41:34;2.97;;;0.93;;
11771;SDS011;12556;55.748;13.194;2024-02-23T05:44:02;3.33;;;1.30;;
11771;SDS011;12556;55.748;13.194;2024-02-23T05:46:30;3.70;;;1.30;;
11771;SDS011;12556;55.748;13.194;2024-02-23T05:48:58;1.03;;;0.80;;
11771;SDS011;12556;55.748;13.194;2024-02-23T05:51:25;3.93;;;1.40;;
11771;SDS011;12556;55.748;13.194;2024-02-23T05:53:55;4.37;;;1.47;;
11771;SDS011;12556;55.748;13.194;2024-02-23T05:56:22;3.23;;;1.30;;
11771;SDS011;12556;55.748;13.194;2024-02-23T05:58:50;4.50;;;1.57;;
11771;SDS011;12556;55.748;13.194;2024-02-23T06:01:17;3.83;;;1.10;;
11771;SDS011;12556;55.748;13.194;2024-02-23T06:03:44;4.30;;;1.83;;
11771;SDS011;12556;55.748;13.194;2024-02-23T06:06:11;5.83;;;2.03;;
11771;SDS011;12556;55.748;13.194;2024-02-23T06:08:37;3.00;;;1.60;;
11771;SDS011;12556;55.748;13.194;2024-02-23T06:11:06;6.47;;;1.90;;
11771;SDS011;12556;55.748;13.194;2024-02-23T06:13:36;6.80;;;2.07;;
11771;SDS011;12556;55.748;13.194;2024-02-23T06:16:03;6.20;;;2.17;;
11771;SDS011;12556;55.748;13.194;2024-02-23T06:18:31;4.77;;;2.23;;
11771;SDS011;12556;55.748;13.194;2024-02-23T06:20:57;5.03;;;1.60;;
11771;SDS011;12556;55.748;13.194;2024-02-23T06:23:24;5.97;;;1.87;;
11771;SDS011;12556;55.748;13.194;2024-02-23T06:25:51;6.13;;;2.27;;
11771;SDS011;12556;55.748;13.194;2024-02-23T06:28:19;7.30;;;2.10;;
11771;SDS011;12556;55.748;13.194;2024-02-23T06:30:46;4.77;;;1.23;;
11771;SDS011;12556;55.748;13.194;2024-02-23T06:33:13;7.17;;;2.23;;
11771;SDS011;12556;55.748;13.194;2024-02-23T06:35:40;6.13;;;1.70;;
11771;SDS011;12556;55.748;13.194;2024-02-23T06:38:07;4.63;;;1.40;;
11771;SDS011;12556;55.748;13.194;2024-02-23T06:40:34;6.13;;;1.57;;
11771;SDS011;12556;55.748;13.194;2024-02-23T06:43:01;4.07;;;1.57;;
11771;SDS011;12556;55.748;13.194;2024-02-23T06:45:30;3.63;;;1.70;;
11771;SDS011;12556;55.748;13.194;2024-02-23T06:47:57;3.67;;;1.50;;
11771;SDS011;12556;55.748;13.194;2024-02-23T06:50:23;2.60;;;1.27;;
11771;SDS011;12556;55.748;13.194;2024-02-23T06:52:51;3.00;;;1.90;;
11771;SDS011;12556;55.748;13.194;2024-02-23T06:55:17;5.67;;;1.87;;
11771;SDS011;12556;55.748;13.194;2024-02-23T06:57:44;4.23;;;2.33;;
11771;SDS011;12556;55.748;13.194;2024-02-23T07:00:12;6.00;;;2.17;;
11771;SDS011;12556;55.748;13.194;2024-02-23T07:02:41;6.03;;;1.90;;
11771;SDS011;12556;55.748;13.194;2024-02-23T07:05:08;4.80;;;1.63;;
11771;SDS011;12556;55.748;13.194;2024-02-23T07:07:35;5.17;;;1.57;;
11771;SDS011;12556;55.748;13.194;2024-02-23T07:10:02;3.37;;;1.70;;
11771;SDS011;12556;55.748;13.194;2024-02-23T07:12:29;5.27;;;1.80;;
11771;SDS011;12556;55.748;13.194;2024-02-23T07:14:56;8.93;;;1.70;;
11771;SDS011;12556;55.748;13.194;2024-02-23T07:17:23;5.13;;;1.60;;
11771;SDS011;12556;55.748;13.194;2024-02-23T07:19:51;5.63;;;1.80;;
11771;SDS011;12556;55.748;13.194;2024-02-23T07:22:18;3.37;;;1.57;;
11771;SDS011;12556;55.748;13.194;2024-02-23T07:24:45;2.10;;;1.40;;
11771;SDS011;12556;55.748;13.194;2024-02-23T07:27:14;2.83;;;1.30;;
11771;SDS011;12556;55.748;13.194;2024-02-23T07:29:41;4.27;;;2.00;;
11771;SDS011;12556;55.748;13.194;2024-02-23T07:32:08;2.47;;;1.40;;
11771;SDS011;12556;55.748;13.194;2024-02-23T07:34:35;5.70;;;1.47;;
11771;SDS011;12556;55.748;13.194;2024-02-23T07:37:03;5.53;;;1.70;;
11771;SDS011;12556;55.748;13.194;2024-02-23T07:39:30;4.73;;;1.57;;
11771;SDS011;12556;55.748;13.194;2024-02-23T07:41:57;3.53;;;1.50;;
11771;SDS011;12556;55.748;13.194;2024-02-23T07:44:24;4.90;;;1.67;;
11771;SDS011;12556;55.748;13.194;2024-02-23T07:46:51;4.23;;;1.60;;
11771;SDS011;12556;55.748;13.194;2024-02-23T07:49:19;2.57;;;1.20;;
11771;SDS011;12556;55.748;13.194;2024-02-23T07:51:47;3.87;;;1.33;;
11771;SDS011;12556;55.748;13.194;2024-02-23T07:54:15;6.63;;;1.80;;
11771;SDS011;12556;55.748;13.194;2024-02-23T07:56:42;2.47;;;1.43;;
11771;SDS011;12556;55.748;13.194;2024-02-23T07:59:10;4.57;;;1.50;;
11771;SDS011;12556;55.748;13.194;2024-02-23T08:01:37;6.90;;;1.80;;
11771;SDS011;12556;55.748;13.194;2024-02-23T08:04:05;6.60;;;2.13;;
11771;SDS011;12556;55.748;13.194;2024-02-23T08:06:32;7.33;;;1.70;;
11771;SDS011;12556;55.748;13.194;2024-02-23T08:08:58;7.60;;;2.07;;
11771;SDS011;12556;55.748;13.194;2024-02-23T08:11:27;4.83;;;2.03;;
11771;SDS011;12556;55.748;13.194;2024-02-23T08:13:53;5.90;;;1.83;;
11771;SDS011;12556;55.748;13.194;2024-02-23T08:16:20;7.50;;;2.10;;
11771;SDS011;12556;55.748;13.194;2024-02-23T08:18:47;9.03;;;2.10;;
11771;SDS011;12556;55.748;13.194;2024-02-23T08:21:14;6.87;;;2.40;;
11771;SDS011;12556;55.748;13.194;2024-02-23T08:23:41;7.93;;;2.40;;
11771;SDS011;12556;55.748;13.194;2024-02-23T08:26:08;5.27;;;1.70;;
11771;SDS011;12556;55.748;13.194;2024-02-23T08:28:37;3.67;;;1.80;;
11771;SDS011;12556;55.748;13.194;2024-02-23T08:31:03;6.17;;;1.90;;
11771;SDS011;12556;55.748;13.194;2024-02-23T08:33:30;8.37;;;1.97;;
11771;SDS011;12556;55.748;13.194;2024-02-23T08:35:57;4.20;;;1.30;;
11771;SDS011;12556;55.748;13.194;2024-02-23T08:38:24;5.73;;;1.50;;
11771;SDS011;12556;55.748;13.194;2024-02-23T08:40:50;4.27;;;1.87;;
11771;SDS011;12556;55.748;13.194;2024-02-23T08:43:17;9.13;;;1.87;;
11771;SDS011;12556;55.748;13.194;2024-02-23T08:45:46;5.77;;;1.60;;
11771;SDS011;12556;55.748;13.194;2024-02-23T08:48:13;5.00;;;2.37;;
11771;SDS011;12556;55.748;13.194;2024-02-23T08:50:41;5.20;;;2.07;;
11771;SDS011;12556;55.748;13.194;2024-02-23T08:53:08;6.50;;;2.07;;
11771;SDS011;12556;55.748;13.194;2024-02-23T08:55:35;6.40;;;1.83;;
11771;SDS011;12556;55.748;13.194;2024-02-23T08:58:02;4.90;;;1.90;;
11771;SDS011;12556;55.748;13.194;2024-02-23T09:00:30;6.23;;;2.13;;
11771;SDS011;12556;55.748;13.194;2024-02-23T09:02:59;3.33;;;1.77;;
11771;SDS011;12556;55.748;13.194;2024-02-23T09:05:26;2.80;;;1.70;;
11771;SDS011;12556;55.748;13.194;2024-02-23T09:07:52;6.67;;;2.03;;
11771;SDS011;12556;55.748;13.194;2024-02-23T09:10:20;6.43;;;2.03;;
11771;SDS011;12556;55.748;13.194;2024-02-23T09:12:46;7.93;;;2.00;;
11771;SDS011;12556;55.748;13.194;2024-02-23T09:15:13;5.10;;;2.00;;
11771;SDS011;12556;55.748;13.194;2024-02-23T09:17:40;6.33;;;2.27;;
11771;SDS011;12556;55.748;13.194;2024-02-23T09:20:10;3.40;;;1.70;;
11771;SDS011;12556;55.748;13.194;2024-02-23T09:22:37;6.57;;;2.30;;
11771;SDS011;12556;55.748;13.194;2024-02-23T09:25:05;9.67;;;2.47;;
11771;SDS011;12556;55.748;13.194;2024-02-23T09:27:33;4.37;;;1.83;;
11771;SDS011;12556;55.748;13.194;2024-02-23T09:30:02;6.23;;;2.07;;
11771;SDS011;12556;55.748;13.194;2024-02-23T09:32:29;4.90;;;2.27;;
11771;SDS011;12556;55.748;13.194;2024-02-23T09:34:56;6.30;;;2.67;;
11771;SDS011;12556;55.748;13.194;2024-02-23T09:37:25;4.00;;;2.10;;
11771;SDS011;12556;55.748;13.194;2024-02-23T09:39:52;3.90;;;1.80;;
11771;SDS011;12556;55.748;13.194;2024-02-23T09:42:18;5.97;;;2.40;;
11771;SDS011;12556;55.748;13.194;2024-02-23T09:44:49;3.63;;;1.67;;
11771;SDS011;12556;55.748;13.194;2024-02-23T09:47:24;3.67;;;1.50;;
11771;SDS011;12556;55.748;13.194;2024-02-23T09:49:51;4.83;;;1.63;;
11771;SDS011;12556;55.748;13.194;2024-02-23T09:52:19;3.03;;;1.73;;
11771;SDS011;12556;55.748;13.194;2024-02-23T09:54:48;6.77;;;1.70;;
11771;SDS011;12556;55.748;13.194;2024-02-23T09:57:15;6.47;;;1.50;;
11771;SDS011;12556;55.748;13.194;2024-02-23T09:59:43;3.13;;;1.70;;
11771;SDS011;12556;55.748;13.194;2024-02-23T10:02:14;4.50;;;1.87;;
11771;SDS011;12556;55.748;13.194;2024-02-23T10:04:42;2.83;;;1.60;;
11771;SDS011;12556;55.748;13.194;2024-02-23T10:07:09;4.37;;;1.80;;
11771;SDS011;12556;55.748;13.194;2024-02-23T10:09:40;4.53;;;1.60;;
11771;SDS011;12556;55.748;13.194;2024-02-23T10:12:09;4.70;;;1.87;;
11771;SDS011;12556;55.748;13.194;2024-02-23T10:14:36;7.07;;;2.10;;
11771;SDS011;12556;55.748;13.194;2024-02-23T10:17:03;6.83;;;1.90;;
11771;SDS011;12556;55.748;13.194;2024-02-23T10:19:33;3.53;;;1.33;;
11771;SDS011;12556;55.748;13.194;2024-02-23T10:22:00;3.43;;;2.10;;
11771;SDS011;12556;55.748;13.194;2024-02-23T10:24:27;3.57;;;1.73;;
11771;SDS011;12556;55.748;13.194;2024-02-23T10:26:54;3.70;;;1.50;;
11771;SDS011;12556;55.748;13.194;2024-02-23T10:29:22;2.07;;;1.20;;
11771;SDS011;12556;55.748;13.194;2024-02-23T10:31:49;1.87;;;1.13;;
11771;SDS011;12556;55.748;13.194;2024-02-23T10:34:19;1.40;;;1.10;;
11771;SDS011;12556;55.748;13.194;2024-02-23T10:36:46;3.83;;;1.10;;
11771;SDS011;12556;55.748;13.194;2024-02-23T10:39:15;4.27;;;1.23;;
11771;SDS011;12556;55.748;13.194;2024-02-23T10:41:46;2.97;;;0.97;;
11771;SDS011;12556;55.748;13.194;2024-02-23T10:44:18;2.53;;;1.40;;
11771;SDS011;12556;55.748;13.194;2024-02-23T10:46:46;3.43;;;1.30;;
11771;SDS011;12556;55.748;13.194;2024-02-23T10:49:16;5.43;;;1.57;;
11771;SDS011;12556;55.748;13.194;2024-02-23T10:51:46;3.47;;;1.23;;
11771;SDS011;12556;55.748;13.194;2024-02-23T10:54:14;2.50;;;1.30;;
11771;SDS011;12556;55.748;13.194;2024-02-23T10:56:46;3.40;;;1.53;;
11771;SDS011;12556;55.748;13.194;2024-02-23T10:59:13;2.63;;;1.27;;
11771;SDS011;12556;55.748;13.194;2024-02-23T11:01:43;1.77;;;1.27;;
11771;SDS011;12556;55.748;13.194;2024-02-23T11:04:12;4.17;;;1.60;;
11771;SDS011;12556;55.748;13.194;2024-02-23T11:06:39;4.33;;;1.30;;
11771;SDS011;12556;55.748;13.194;2024-02-23T11:09:07;3.13;;;1.27;;
11771;SDS011;12556;55.748;13.194;2024-02-23T11:11:38;5.17;;;1.40;;
11771;SDS011;12556;55.748;13.194;2024-02-23T11:14:07;4.53;;;1.80;;
11771;SDS011;12556;55.748;13.194;2024-02-23T11:16:38;5.00;;;1.57;;
11771;SDS011;12556;55.748;13.194;2024-02-23T11:19:06;5.33;;;1.20;;
11771;SDS011;12556;55.748;13.194;2024-02-23T11:21:37;5.80;;;1.70;;
11771;SDS011;12556;55.748;13.194;2024-02-23T11:24:05;4.00;;;1.40;;
11771;SDS011;12556;55.748;13.194;2024-02-23T11:26:32;8.87;;;1.70;;
11771;SDS011;12556;55.748;13.194;2024-02-23T11:29:09;6.80;;;1.90;;
11771;SDS011;12556;55.748;13.194;2024-02-23T11:31:37;4.37;;;1.60;;
11771;SDS011;12556;55.748;13.194;2024-02-23T11:34:11;4.63;;;1.47;;
11771;SDS011;12556;55.748;13.194;2024-02-23T11:36:40;4.90;;;1.90;;
11771;SDS011;12556;55.748;13.194;2024-02-23T11:39:07;3.10;;;1.70;;
11771;SDS011;12556;55.748;13.194;2024-02-23T11:41:37;6.63;;;1.83;;
11771;SDS011;12556;55.748;13.194;2024-02-23T11:44:05;3.03;;;1.70;;
11771;SDS011;12556;55.748;13.194;2024-02-23T11:46:32;5.93;;;1.50;;
11771;SDS011;12556;55.748;13.194;2024-02-23T11:48:59;6.10;;;2.27;;
11771;SDS011;12556;55.748;13.194;2024-02-23T11:51:26;5.50;;;2.20;;
11771;SDS011;12556;55.748;13.194;2024-02-23T11:53:56;4.27;;;1.77;;
11771;SDS011;12556;55.748;13.194;2024-02-23T11:56:25;3.70;;;2.00;;
11771;SDS011;12556;55.748;13.194;2024-02-23T11:58:52;2.90;;;1.50;;
11771;SDS011;12556;55.748;13.194;2024-02-23T12:01:20;6.17;;;2.07;;
11771;SDS011;12556;55.748;13.194;2024-02-23T12:03:47;5.43;;;1.70;;
11771;SDS011;12556;55.748;13.194;2024-02-23T12:06:14;2.67;;;1.67;;
11771;SDS011;12556;55.748;13.194;2024-02-23T12:08:41;7.50;;;2.10;;
11771;SDS011;12556;55.748;13.194;2024-02-23T12:11:10;5.63;;;1.50;;
11771;SDS011;12556;55.748;13.194;2024-02-23T12:13:39;7.07;;;1.70;;
11771;SDS011;12556;55.748;13.194;2024-02-23T12:16:07;4.10;;;1.53;;
11771;SDS011;12556;55.748;13.194;2024-02-23T12:18:35;5.03;;;1.83;;
11771;SDS011;12556;55.748;13.194;2024-02-23T12:21:02;4.07;;;2.10;;
11771;SDS011;12556;55.748;13.194;2024-02-23T12:23:37;5.27;;;2.40;;
11771;SDS011;12556;55.748;13.194;2024-02-23T12:26:08;10.17;;;2.00;;
11771;SDS011;12556;55.748;13.194;2024-02-23T12:28:38;5.53;;;1.73;;
11771;SDS011;12556;55.748;13.194;2024-02-23T12:31:05;6.13;;;2.03;;
11771;SDS011;12556;55.748;13.194;2024-02-23T12:33:33;3.50;;;2.10;;
11771;SDS011;12556;55.748;13.194;2024-02-23T12:36:01;2.67;;;1.70;;
11771;SDS011;12556;55.748;13.194;2024-02-23T12:38:29;4.57;;;1.97;;
11771;SDS011;12556;55.748;13.194;2024-02-23T12:40:56;3.53;;;1.67;;
11771;SDS011;12556;55.748;13.194;2024-02-23T12:43:24;4.23;;;1.90;;
11771;SDS011;12556;55.748;13.194;2024-02-23T12:45:52;5.07;;;1.80;;
11771;SDS011;12556;55.748;13.194;2024-02-23T12:48:20;6.80;;;1.90;;
11771;SDS011;12556;55.748;13.194;2024-02-23T12:50:47;4.80;;;1.97;;
11771;SDS011;12556;55.748;13.194;2024-02-23T12:53:29;4.77;;;1.63;;
11771;SDS011;12556;55.748;13.194;2024-02-23T12:55:58;5.03;;;2.10;;
11771;SDS011;12556;55.748;13.194;2024-02-23T12:58:26;5.33;;;1.90;;
11771;SDS011;12556;55.748;13.194;2024-02-23T13:00:53;3.93;;;2.00;;
11771;SDS011;12556;55.748;13.194;2024-02-23T13:03:20;3.57;;;1.40;;
11771;SDS011;12556;55.748;13.194;2024-02-23T13:05:47;6.50;;;2.03;;
11771;SDS011;12556;55.748;13.194;2024-02-23T13:08:14;4.73;;;2.10;;
11771;SDS011;12556;55.748;13.194;2024-02-23T13:10:41;5.03;;;1.60;;
11771;SDS011;12556;55.748;13.194;2024-02-23T13:13:08;2.40;;;1.47;;
11771;SDS011;12556;55.748;13.194;2024-02-23T13:15:36;8.27;;;1.80;;
11771;SDS011;12556;55.748;13.194;2024-02-23T13:18:03;6.87;;;2.10;;
11771;SDS011;12556;55.748;13.194;2024-02-23T13:20:31;6.57;;;1.50;;
11771;SDS011;12556;55.748;13.194;2024-02-23T13:22:57;7.37;;;1.90;;
11771;SDS011;12556;55.748;13.194;2024-02-23T13:25:24;5.27;;;1.67;;
11771;SDS011;12556;55.748;13.194;2024-02-23T13:27:51;6.00;;;1.60;;
11771;SDS011;12556;55.748;13.194;2024-02-23T13:30:18;7.07;;;1.93;;
11771;SDS011;12556;55.748;13.194;2024-02-23T13:32:46;4.17;;;1.97;;
11771;SDS011;12556;55.748;13.194;2024-02-23T13:35:13;3.30;;;1.73;;
11771;SDS011;12556;55.748;13.194;2024-02-23T13:37:42;6.60;;;2.03;;
11771;SDS011;12556;55.748;13.194;2024-02-23T13:40:09;2.90;;;1.53;;
11771;SDS011;12556;55.748;13.194;2024-02-23T13:42:36;5.37;;;1.77;;
11771;SDS011;12556;55.748;13.194;2024-02-23T13:45:05;3.87;;;1.80;;
11771;SDS011;12556;55.748;13.194;2024-02-23T13:47:33;7.00;;;2.30;;
11771;SDS011;12556;55.748;13.194;2024-02-23T13:50:02;3.73;;;1.60;;
11771;SDS011;12556;55.748;13.194;2024-02-23T13:52:30;7.03;;;2.10;;
11771;SDS011;12556;55.748;13.194;2024-02-23T13:54:57;4.23;;;2.07;;
11771;SDS011;12556;55.748;13.194;2024-02-23T13:57:24;8.30;;;1.70;;
11771;SDS011;12556;55.748;13.194;2024-02-23T13:59:50;2.80;;;1.70;;
11771;SDS011;12556;55.748;13.194;2024-02-23T14:02:23;5.70;;;1.93;;
11771;SDS011;12556;55.748;13.194;2024-02-23T14:04:51;6.57;;;2.03;;
11771;SDS011;12556;55.748;13.194;2024-02-23T14:07:19;3.97;;;1.87;;
11771;SDS011;12556;55.748;13.194;2024-02-23T14:09:46;4.57;;;2.20;;
11771;SDS011;12556;55.748;13.194;2024-02-23T14:12:13;7.57;;;2.10;;
11771;SDS011;12556;55.748;13.194;2024-02-23T14:14:40;3.80;;;1.37;;
11771;SDS011;12556;55.748;13.194;2024-02-23T14:17:07;4.67;;;1.70;;
11771;SDS011;12556;55.748;13.194;2024-02-23T14:19:34;5.47;;;2.37;;
11771;SDS011;12556;55.748;13.194;2024-02-23T14:22:01;3.90;;;1.77;;
11771;SDS011;12556;55.748;13.194;2024-02-23T14:24:30;7.07;;;1.93;;
11771;SDS011;12556;55.748;13.194;2024-02-23T14:26:56;3.63;;;1.93;;
11771;SDS011;12556;55.748;13.194;2024-02-23T14:29:23;6.30;;;1.97;;
11771;SDS011;12556;55.748;13.194;2024-02-23T14:31:50;6.50;;;1.90;;
11771;SDS011;12556;55.748;13.194;2024-02-23T14:34:17;6.20;;;1.70;;
11771;SDS011;12556;55.748;13.194;2024-02-23T14:36:45;4.27;;;2.10;;